Terminal Aerodrome Forecast
Issued by NWS Greer, SC

Home | Current Version | Previous Version | Text Only | Print | Product List | Glossary On
Versions: 1 2 3 4 5 6 7 8 9 10 11 12 13 14 15 16 17 18 19 20 21 22 23 24 25 26 27 28 29 30 31
000
FTUS42 KGSP 011740
TAFAVL
TAF
KAVL 011740Z 0118/0218 18010G17KT P6SM BKN025
     FM012200 17009KT P6SM -SHRA OVC020
     FM020000 18007KT 5SM -SHRA OVC008
     FM020700 21008KT 2SM -SHRA BR OVC008
     FM021000 34012G20KT P6SM -SHRA OVC015
     FM021400 34020G32KT P6SM BKN030=

USA.gov is the U.S. government's official web portal to all federal, state and local government web resources and services.